createdAt,value
2023-03-08T00:01:37.133Z,65.90
2023-03-08T00:06:42.564Z,65.84
2023-03-08T00:11:48.004Z,65.74
2023-03-08T00:16:53.518Z,66.13
2023-03-08T00:21:59.135Z,66.03
2023-03-08T00:27:05.539Z,66.11
2023-03-08T00:32:11.146Z,66.06
2023-03-08T00:37:16.824Z,66.17
2023-03-08T00:42:25.051Z,66.16
2023-03-08T00:47:30.523Z,66.41
2023-03-08T00:52:37.338Z,66.37
2023-03-08T00:57:44.125Z,66.50
2023-03-08T01:02:49.816Z,66.82
2023-03-08T01:07:55.185Z,66.81
2023-03-08T01:13:01.344Z,67.02
2023-03-08T01:18:07.842Z,67.21
2023-03-08T01:23:13.359Z,67.39
2023-03-08T01:28:18.984Z,67.50
2023-03-08T01:33:25.201Z,67.71
2023-03-08T01:38:30.664Z,68.12
2023-03-08T01:43:39.924Z,68.35
2023-03-08T01:48:51.973Z,68.78
2023-03-08T01:53:58.861Z,68.98
2023-03-08T01:59:05.550Z,69.22
2023-03-08T02:04:12.467Z,69.53
2023-03-08T02:09:18.511Z,69.83
2023-03-08T02:14:24.270Z,69.97
2023-03-08T02:19:36.766Z,70.21
2023-03-08T02:24:43.143Z,70.44
2023-03-08T02:29:49.508Z,70.58
2023-03-08T02:34:54.946Z,70.87
2023-03-08T02:40:02.157Z,71.11
2023-03-08T02:45:08.971Z,71.72
2023-03-08T02:50:16.046Z,71.82
2023-03-08T02:55:25.591Z,72.10
2023-03-08T03:00:31.381Z,72.27
2023-03-08T03:05:38.536Z,72.66
2023-03-08T03:10:44.445Z,72.84
2023-03-08T03:15:51.260Z,73.17
2023-03-08T03:20:56.874Z,73.54
2023-03-08T03:26:07.495Z,73.65
2023-03-08T03:31:20.122Z,73.75
2023-03-08T03:36:25.894Z,74.03
2023-03-08T03:41:31.647Z,74.29
2023-03-08T03:46:38.865Z,74.75
2023-03-08T03:51:45.802Z,75.26
2023-03-08T03:56:57.898Z,75.80
2023-03-08T04:02:04.799Z,75.98
2023-03-08T04:07:14.740Z,75.70
2023-03-08T04:12:21.873Z,75.99
2023-03-08T04:17:27.941Z,76.04
2023-03-08T04:22:34.282Z,76.11
2023-03-08T04:27:41.352Z,76.39
2023-03-08T04:32:47.859Z,76.70
2023-03-08T04:37:53.755Z,76.95
2023-03-08T04:43:01.061Z,76.83
2023-03-08T04:48:08.301Z,76.74
2023-03-08T04:53:15.287Z,77.01
2023-03-08T04:58:36.222Z,77.13
2023-03-08T05:03:42.506Z,77.48
2023-03-08T05:08:49.266Z,77.83
2023-03-08T05:13:57.325Z,78.05
2023-03-08T05:19:03.251Z,77.98
2023-03-08T05:24:10.485Z,78.31
2023-03-08T05:29:16.665Z,78.48
2023-03-08T05:34:22.672Z,78.71
2023-03-08T05:39:30.330Z,78.79
2023-03-08T05:44:40.668Z,79.00
2023-03-08T05:49:47.184Z,79.14
2023-03-08T05:54:53.863Z,79.26
2023-03-08T06:00:00.044Z,79.66
2023-03-08T06:05:07.833Z,79.75
2023-03-08T06:10:13.725Z,80.28
2023-03-08T06:15:19.389Z,80.49
2023-03-08T06:20:25.016Z,80.44
2023-03-08T06:25:30.534Z,80.68
2023-03-08T06:30:37.311Z,80.51
2023-03-08T06:35:43.582Z,81.15
2023-03-08T06:40:49.396Z,80.52
2023-03-08T06:45:55.507Z,80.07
2023-03-08T06:51:01.219Z,80.51
2023-03-08T06:56:22.044Z,80.55
2023-03-08T07:01:27.451Z,80.22
2023-03-08T07:06:33.215Z,80.19
2023-03-08T07:11:39.430Z,79.75
2023-03-08T07:16:45.113Z,79.68
2023-03-08T07:21:50.629Z,78.90
2023-03-08T07:26:57.231Z,78.54
2023-03-08T07:32:02.871Z,78.46
2023-03-08T07:37:14.179Z,78.03
2023-03-08T07:42:19.754Z,77.78
2023-03-08T07:47:27.139Z,77.39
2023-03-08T07:52:32.990Z,77.58
2023-03-08T07:57:38.805Z,76.44
2023-03-08T08:02:44.279Z,75.97
2023-03-08T08:07:50.041Z,74.99
2023-03-08T08:12:55.480Z,75.20
2023-03-08T08:18:01.428Z,73.60
2023-03-08T08:23:07.696Z,74.05
2023-03-08T08:28:13.192Z,73.42
2023-03-08T08:33:18.636Z,73.68
2023-03-08T08:38:24.546Z,73.12
2023-03-08T08:43:31.442Z,72.73
2023-03-08T08:48:38.316Z,72.84
2023-03-08T08:53:44.514Z,72.26
2023-03-08T08:58:50.366Z,72.11
2023-03-08T09:03:56.304Z,71.87
2023-03-08T09:09:02.119Z,71.32
2023-03-08T09:14:07.727Z,71.31
2023-03-08T09:19:13.169Z,71.70
2023-03-08T09:24:18.727Z,71.02
2023-03-08T09:29:25.679Z,70.27
2023-03-08T09:34:32.364Z,70.02
2023-03-08T09:39:39.961Z,69.92
2023-03-08T09:45:07.561Z,70.12
2023-03-08T09:50:19.111Z,69.92
2023-03-08T09:55:29.090Z,70.16
2023-03-08T10:00:37.854Z,70.81
2023-03-08T10:05:52.601Z,70.08
2023-03-08T10:11:04.364Z,68.64
2023-03-08T10:16:31.001Z,68.66
2023-03-08T10:21:39.664Z,68.69
2023-03-08T10:26:46.171Z,68.69
2023-03-08T10:31:51.561Z,67.29
2023-03-08T10:37:03.046Z,67.29
2023-03-08T10:42:17.515Z,65.72
2023-03-08T10:47:28.487Z,66.95
2023-03-08T10:52:34.089Z,66.95
2023-03-08T10:57:41.479Z,66.05
2023-03-08T11:02:48.813Z,66.63
2023-03-08T11:07:57.223Z,64.76
2023-03-08T11:13:23.564Z,64.76
2023-03-08T11:18:37.898Z,64.70
2023-03-08T11:23:49.030Z,64.76
2023-03-08T11:29:03.453Z,63.22
2023-03-08T11:34:23.359Z,63.56
2023-03-08T11:39:38.352Z,63.04
2023-03-08T11:45:03.185Z,63.27
2023-03-08T11:50:15.754Z,62.95
2023-03-08T11:55:42.845Z,62.95
2023-03-08T12:00:51.603Z,63.00
2023-03-08T12:06:00.126Z,62.36
2023-03-08T12:11:11.364Z,62.57
2023-03-08T12:16:22.668Z,61.98
2023-03-08T12:21:31.175Z,60.73
2023-03-08T12:26:52.632Z,61.38
2023-03-08T12:31:59.094Z,61.71
2023-03-08T12:37:05.340Z,61.04
2023-03-08T12:42:16.797Z,59.67
2023-03-08T12:47:24.298Z,60.15
2023-03-08T12:52:35.014Z,59.92
2023-03-08T12:57:55.436Z,59.09
2023-03-08T13:03:15.470Z,59.15
2023-03-08T13:08:39.253Z,60.70
2023-03-08T13:14:01.293Z,59.52
2023-03-08T13:19:19.395Z,59.19
2023-03-08T13:24:49.132Z,57.67
2023-03-08T13:29:55.213Z,58.29
2023-03-08T13:35:03.366Z,57.58
2023-03-08T13:40:20.064Z,56.23
2023-03-08T13:45:26.105Z,56.60
2023-03-08T13:50:34.894Z,56.93
2023-03-08T13:55:43.215Z,57.04
2023-03-08T14:00:51.746Z,57.01
2023-03-08T14:05:57.378Z,55.85
2023-03-08T14:11:06.055Z,55.96
2023-03-08T14:16:14.675Z,55.29
2023-03-08T14:21:23.194Z,55.31
2023-03-08T14:26:38.080Z,55.34
2023-03-08T14:31:58.698Z,54.90
2023-03-08T14:37:10.412Z,55.87
2023-03-08T14:42:27.198Z,55.22
2023-03-08T14:47:34.908Z,55.73
2023-03-08T14:52:43.669Z,55.77
2023-03-08T14:57:49.477Z,55.46
2023-03-08T15:02:55.722Z,55.11
2023-03-08T15:08:01.735Z,55.69
2023-03-08T15:13:21.684Z,55.47
2023-03-08T15:18:27.224Z,55.39
2023-03-08T15:23:35.579Z,54.85
2023-03-08T15:28:41.750Z,54.72
2023-03-08T15:33:47.612Z,54.61
2023-03-08T15:38:53.060Z,54.33
2023-03-08T15:43:58.679Z,54.04
2023-03-08T15:49:05.622Z,53.91
2023-03-08T15:54:12.801Z,53.52
2023-03-08T15:59:18.388Z,53.62
2023-03-08T16:04:23.902Z,53.54
2023-03-08T16:09:29.494Z,53.64
2023-03-08T16:14:35.983Z,53.90
2023-03-08T16:19:41.616Z,53.62
2023-03-08T16:24:47.433Z,53.93
2023-03-08T16:29:54.061Z,54.17
2023-03-08T16:35:00.893Z,54.37
2023-03-08T16:40:07.548Z,54.49
2023-03-08T16:45:16.507Z,54.68
2023-03-08T16:50:22.446Z,54.93
2023-03-08T16:55:28.148Z,55.06
2023-03-08T17:00:34.261Z,55.35
2023-03-08T17:05:45.892Z,55.42
2023-03-08T17:10:51.502Z,55.54
2023-03-08T17:15:57.195Z,55.79
2023-03-08T17:21:02.755Z,56.03
2023-03-08T17:26:10.076Z,56.02
2023-03-08T17:31:20.730Z,56.25
2023-03-08T17:36:27.532Z,56.52
2023-03-08T17:41:34.455Z,56.78
2023-03-08T17:46:40.248Z,56.66
2023-03-08T17:51:45.798Z,56.90
2023-03-08T17:56:51.322Z,56.88
2023-03-08T18:01:56.866Z,57.03
2023-03-08T18:07:02.429Z,57.20
2023-03-08T18:12:09.572Z,57.28
2023-03-08T18:17:15.053Z,57.40
2023-03-08T18:22:20.551Z,57.40
2023-03-08T18:27:26.025Z,57.80
2023-03-08T18:32:31.518Z,57.78
2023-03-08T18:37:37.234Z,58.15
2023-03-08T18:42:44.068Z,58.09
2023-03-08T18:47:52.898Z,58.09
2023-03-08T18:52:58.445Z,58.18
2023-03-08T18:58:03.927Z,58.24
2023-03-08T19:03:09.467Z,58.20
2023-03-08T19:08:15.202Z,58.49
2023-03-08T19:13:20.648Z,58.56
2023-03-08T19:18:26.210Z,58.95
2023-03-08T19:23:31.599Z,58.95
2023-03-08T19:28:37.114Z,58.93
2023-03-08T19:33:45.620Z,58.93
2023-03-08T19:38:52.239Z,59.13
2023-03-08T19:43:57.899Z,59.13
2023-03-08T19:49:03.475Z,59.46
2023-03-08T19:54:09.942Z,59.46
2023-03-08T19:59:15.917Z,59.17
2023-03-08T20:04:22.649Z,59.39
2023-03-08T20:09:28.524Z,59.57
2023-03-08T20:14:34.262Z,59.57
2023-03-08T20:19:39.780Z,59.88
2023-03-08T20:24:45.363Z,59.90
2023-03-08T20:29:53.336Z,60.15
2023-03-08T20:34:58.828Z,60.15
2023-03-08T20:40:06.263Z,60.22
2023-03-08T20:45:12.465Z,60.21
2023-03-08T20:50:18.711Z,60.18
2023-03-08T20:55:24.213Z,60.37
2023-03-08T21:00:29.849Z,60.66
2023-03-08T21:05:36.407Z,60.57
2023-03-08T21:10:42.498Z,60.46
2023-03-08T21:15:48.757Z,60.80
2023-03-08T21:20:54.226Z,60.96
2023-03-08T21:26:02.256Z,60.90
2023-03-08T21:31:12.214Z,61.00
2023-03-08T21:36:18.515Z,60.87
2023-03-08T21:41:26.778Z,61.40
2023-03-08T21:46:33.453Z,61.51
2023-03-08T21:51:38.900Z,61.89
2023-03-08T21:56:44.843Z,62.03
2023-03-08T22:01:53.090Z,62.30
2023-03-08T22:06:58.998Z,62.38
2023-03-08T22:12:04.930Z,62.65
2023-03-08T22:17:10.315Z,62.70
2023-03-08T22:22:17.018Z,62.65
2023-03-08T22:27:24.586Z,62.93
2023-03-08T22:32:30.182Z,63.12
2023-03-08T22:37:36.653Z,63.33
2023-03-08T22:42:42.239Z,63.43
2023-03-08T22:47:47.764Z,63.32
2023-03-08T22:52:53.156Z,63.53
2023-03-08T22:57:58.674Z,63.55
2023-03-08T23:03:04.575Z,63.57
2023-03-08T23:08:10.215Z,63.58
2023-03-08T23:13:31.184Z,63.53
2023-03-08T23:18:23.183Z,63.75
2023-03-08T23:23:28.897Z,63.95
2023-03-08T23:28:35.814Z,63.94
2023-03-08T23:33:42.380Z,64.08
2023-03-08T23:38:48.063Z,64.46
2023-03-08T23:43:58.721Z,64.71
2023-03-08T23:49:04.448Z,64.51
2023-03-08T23:54:12.221Z,64.93
2023-03-08T23:59:20.377Z,65.29
